Time;durP1;ratioP1;P1;durP2;ratioP2;P2;SDS_P1;SDS_P2;PMS_P1;PMS_P2;Temp;Humidity;BMP_temperature;BMP_pressure;BME280_temperature;BME280_humidity;BME280_pressure;Samples;Min_cycle;Max_cycle;Signal;HPM_P1;HPM_P2
2023/04/16 00:01:46;;;;;;;1.07;1.07;;;;;6.80;95880.00;;;;5067289;22;20206;-59
2023/04/16 00:04:13;;;;;;;0.80;0.80;;;;;6.70;95888.00;;;;5053370;28;20585;-60
2023/04/16 00:06:42;;;;;;;1.37;1.13;;;;;6.70;95881.00;;;;5052912;28;20188;-59
2023/04/16 00:09:09;;;;;;;2.10;2.00;;;;;6.60;95884.00;;;;5053125;28;20218;-59
2023/04/16 00:11:37;;;;;;;1.13;1.13;;;;;6.80;95893.00;;;;5052901;28;20691;-59
2023/04/16 00:14:04;;;;;;;1.00;1.00;;;;;6.70;95882.00;;;;5052837;28;20673;-59
2023/04/16 00:16:32;;;;;;;1.33;1.30;;;;;6.80;95881.00;;;;5052900;28;20220;-59
2023/04/16 00:18:59;;;;;;;0.97;0.97;;;;;6.80;95882.00;;;;5053119;28;20541;-59
2023/04/16 00:21:26;;;;;;;1.60;1.43;;;;;6.80;95885.00;;;;5052660;28;20596;-59
2023/04/16 00:23:55;;;;;;;0.93;0.93;;;;;6.70;95881.00;;;;5035017;28;20200;-59
2023/04/16 00:26:23;;;;;;;1.83;1.73;;;;;6.80;95886.00;;;;5035011;28;20258;-60
2023/04/16 00:28:50;;;;;;;0.67;0.67;;;;;6.80;95892.00;;;;5052792;28;20192;-60
2023/04/16 00:31:17;;;;;;;0.70;0.70;;;;;6.80;95894.00;;;;5052861;28;20194;-60
2023/04/16 00:33:45;;;;;;;1.40;1.27;;;;;6.70;95892.00;;;;5052701;28;20285;-60
2023/04/16 00:36:12;;;;;;;1.10;1.10;;;;;6.70;95888.00;;;;5052863;28;20245;-60
2023/04/16 00:38:39;;;;;;;1.33;1.23;;;;;6.70;95887.00;;;;5052745;28;20200;-59
2023/04/16 00:41:08;;;;;;;0.70;0.70;;;;;6.80;95885.00;;;;5052649;28;20243;-60
2023/04/16 00:43:35;;;;;;;2.20;1.33;;;;;6.60;95881.00;;;;5052528;28;20220;-60
2023/04/16 00:46:05;;;;;;;2.30;2.20;;;;;6.60;95888.00;;;;5052671;28;20203;-59
2023/04/16 00:48:33;;;;;;;0.80;0.80;;;;;6.60;95885.00;;;;5034867;28;20308;-59
2023/04/16 00:51:01;;;;;;;0.90;0.90;;;;;6.60;95890.00;;;;5052625;28;20207;-60
2023/04/16 00:53:29;;;;;;;0.97;0.97;;;;;6.70;95887.00;;;;5052548;28;20289;-59
2023/04/16 00:55:57;;;;;;;0.80;0.80;;;;;6.70;95889.00;;;;5052580;28;20297;-60
2023/04/16 00:58:26;;;;;;;1.10;1.10;;;;;6.60;95895.00;;;;5052568;28;20200;-59
2023/04/16 01:00:53;;;;;;;0.93;0.93;;;;;6.60;95893.00;;;;5054252;28;20195;-60
2023/04/16 01:03:21;;;;;;;0.80;0.80;;;;;6.70;95898.00;;;;5056094;28;20251;-59
2023/04/16 01:05:49;;;;;;;0.70;0.70;;;;;6.70;95901.00;;;;5056336;28;20199;-60
2023/04/16 01:08:17;;;;;;;1.17;1.17;;;;;6.70;95900.00;;;;5056559;28;20199;-60
2023/04/16 01:10:45;;;;;;;0.87;0.87;;;;;6.60;95899.00;;;;5056316;28;20192;-59
2023/04/16 01:13:13;;;;;;;0.70;0.70;;;;;6.60;95897.00;;;;5056669;28;20215;-59
2023/04/16 01:15:42;;;;;;;0.70;0.70;;;;;6.70;95892.00;;;;5056454;28;20226;-60
2023/04/16 01:18:15;;;;;;;1.07;1.07;;;;;6.70;95889.00;;;;5056399;28;20195;-60
2023/04/16 01:20:44;;;;;;;1.10;1.10;;;;;6.70;95887.00;;;;5056281;28;20184;-59
2023/04/16 01:23:11;;;;;;;0.80;0.80;;;;;6.70;95886.00;;;;5056136;28;20619;-60
2023/04/16 01:25:39;;;;;;;0.50;0.50;;;;;6.60;95888.00;;;;5056026;28;20555;-60
2023/04/16 01:28:07;;;;;;;0.73;0.73;;;;;6.70;95893.00;;;;5056536;28;20207;-58
2023/04/16 01:30:34;;;;;;;0.93;0.93;;;;;6.60;95885.00;;;;5056052;28;20559;-58
2023/04/16 01:33:02;;;;;;;0.60;0.60;;;;;6.60;95896.00;;;;5056187;28;20269;-58
2023/04/16 01:35:29;;;;;;;1.07;1.07;;;;;6.50;95895.00;;;;5056303;28;20192;-58
2023/04/16 01:37:58;;;;;;;1.00;1.00;;;;;6.40;95883.00;;;;5055624;28;20199;-58
2023/04/16 01:40:26;;;;;;;0.93;0.93;;;;;6.60;95897.00;;;;5055956;28;20190;-58
2023/04/16 01:42:53;;;;;;;0.70;0.70;;;;;6.50;95894.00;;;;5055694;28;20216;-58
2023/04/16 01:45:20;;;;;;;0.90;0.90;;;;;6.60;95900.00;;;;5056075;28;20192;-60
2023/04/16 01:47:49;;;;;;;0.77;0.77;;;;;6.60;95902.00;;;;5055737;28;20201;-59
2023/04/16 01:50:17;;;;;;;0.67;0.67;;;;;6.60;95898.00;;;;5055991;28;20610;-59
2023/04/16 01:52:44;;;;;;;0.73;0.73;;;;;6.60;95899.00;;;;5055566;28;20615;-59
2023/04/16 01:55:13;;;;;;;0.80;0.80;;;;;6.60;95897.00;;;;5055555;28;20563;-59
2023/04/16 01:57:40;;;;;;;0.90;0.90;;;;;6.60;95900.00;;;;5055515;28;20210;-59
2023/04/16 02:00:09;;;;;;;1.00;1.00;;;;;6.70;95890.00;;;;5055304;28;20195;-59
2023/04/16 02:02:36;;;;;;;0.67;0.67;;;;;6.60;95900.00;;;;5054964;28;20701;-59
2023/04/16 02:05:04;;;;;;;0.87;0.87;;;;;6.60;95898.00;;;;5055357;28;20201;-59
2023/04/16 02:07:31;;;;;;;0.87;0.87;;;;;6.60;95902.00;;;;5055062;28;20203;-59
2023/04/16 02:09:59;;;;;;;0.60;0.60;;;;;6.60;95897.00;;;;5055601;28;20196;-59
2023/04/16 02:12:28;;;;;;;0.60;0.60;;;;;6.70;95901.00;;;;5054455;28;20686;-59
2023/04/16 02:14:55;;;;;;;0.87;0.87;;;;;6.70;95905.00;;;;5054969;28;20192;-59
2023/04/16 02:17:22;;;;;;;0.60;0.60;;;;;6.70;95895.00;;;;5054872;28;20196;-59
2023/04/16 02:19:50;;;;;;;0.60;0.60;;;;;6.70;95914.00;;;;5054933;28;20196;-59
2023/04/16 02:22:17;;;;;;;0.70;0.70;;;;;6.70;95897.00;;;;5054746;28;20208;-59
2023/04/16 02:24:44;;;;;;;0.70;0.70;;;;;6.70;95909.00;;;;5036868;28;20200;-58
2023/04/16 02:27:12;;;;;;;0.60;0.60;;;;;6.80;95916.00;;;;5054743;28;20231;-58
2023/04/16 02:29:40;;;;;;;0.70;0.70;;;;;6.70;95912.00;;;;5054946;28;20197;-58
2023/04/16 02:32:08;;;;;;;0.70;0.70;;;;;6.80;95906.00;;;;5054577;28;20211;-58
2023/04/16 02:34:35;;;;;;;0.77;0.77;;;;;6.70;95908.00;;;;5054523;28;20203;-59
2023/04/16 02:37:03;;;;;;;0.70;0.70;;;;;6.70;95914.00;;;;5054519;28;20204;-59
2023/04/16 02:39:30;;;;;;;0.80;0.80;;;;;6.70;95912.00;;;;5054553;28;20220;-59
2023/04/16 02:41:58;;;;;;;0.67;0.67;;;;;6.70;95909.00;;;;5054406;28;20216;-59
2023/04/16 02:44:25;;;;;;;0.73;0.73;;;;;6.70;95916.00;;;;5036431;28;20219;-60
2023/04/16 02:46:54;;;;;;;0.63;0.63;;;;;6.70;95913.00;;;;5054389;28;20200;-59
2023/04/16 02:49:21;;;;;;;0.80;0.80;;;;;6.60;95911.00;;;;5054523;28;20218;-59
2023/04/16 02:51:49;;;;;;;1.20;1.20;;;;;6.50;95919.00;;;;5054145;28;20208;-59
2023/04/16 02:54:16;;;;;;;0.70;0.70;;;;;6.60;95914.00;;;;5054170;28;20194;-59
2023/04/16 02:56:43;;;;;;;0.60;0.60;;;;;6.70;95916.00;;;;5054155;28;20191;-59
2023/04/16 02:59:11;;;;;;;0.77;0.77;;;;;6.70;95914.00;;;;5054090;28;20265;-59
2023/04/16 03:01:38;;;;;;;0.67;0.67;;;;;6.70;95912.00;;;;5053988;28;20670;-59
2023/04/16 03:04:07;;;;;;;0.63;0.63;;;;;6.70;95918.00;;;;5036118;28;20215;-59
2023/04/16 03:06:34;;;;;;;0.60;0.60;;;;;6.60;95910.00;;;;5054523;28;20195;-59
2023/04/16 03:09:01;;;;;;;0.60;0.60;;;;;6.60;95914.00;;;;5053941;28;20191;-59
2023/04/16 03:11:29;;;;;;;1.00;1.00;;;;;6.60;95910.00;;;;5053885;28;20195;-59
2023/04/16 03:13:56;;;;;;;1.00;1.00;;;;;6.60;95916.00;;;;5053825;28;20196;-59
2023/04/16 03:16:24;;;;;;;0.70;0.70;;;;;6.60;95923.00;;;;5054315;28;20290;-59
2023/04/16 03:18:51;;;;;;;1.03;1.03;;;;;6.50;95919.00;;;;5035811;28;20206;-59
2023/04/16 03:21:20;;;;;;;0.90;0.90;;;;;6.60;95922.00;;;;5053683;28;20658;-59
2023/04/16 03:23:48;;;;;;;0.80;0.80;;;;;6.70;95909.00;;;;5052802;28;20697;-59
2023/04/16 03:26:15;;;;;;;0.83;0.83;;;;;6.70;95920.00;;;;5053534;28;20695;-59
2023/04/16 03:28:42;;;;;;;0.70;0.70;;;;;6.50;95913.00;;;;5053626;28;20246;-59
2023/04/16 03:31:10;;;;;;;1.07;1.07;;;;;6.50;95917.00;;;;5054058;28;20191;-59
2023/04/16 03:33:37;;;;;;;1.23;1.23;;;;;6.50;95922.00;;;;5053412;28;20210;-59
2023/04/16 03:36:05;;;;;;;1.77;1.33;;;;;6.60;95928.00;;;;5053358;28;20196;-59
2023/04/16 03:38:33;;;;;;;1.23;1.20;;;;;6.50;95923.00;;;;5053414;28;20224;-59
2023/04/16 03:41:01;;;;;;;0.83;0.83;;;;;6.60;95923.00;;;;5053364;28;20203;-59
2023/04/16 03:43:28;;;;;;;1.03;1.03;;;;;6.60;95933.00;;;;5053204;28;20754;-59
2023/04/16 03:45:56;;;;;;;1.77;1.67;;;;;6.60;95927.00;;;;5053224;28;20206;-59
2023/04/16 03:48:23;;;;;;;1.80;1.70;;;;;6.60;95928.00;;;;5053236;28;20659;-59
2023/04/16 03:50:50;;;;;;;0.90;0.90;;;;;6.60;95928.00;;;;5053133;28;20201;-59
2023/04/16 03:53:18;;;;;;;0.80;0.80;;;;;6.60;95935.00;;;;5053152;28;20258;-59
2023/04/16 03:55:50;;;;;;;0.70;0.70;;;;;6.70;95938.00;;;;5053127;28;20724;-59
2023/04/16 03:58:18;;;;;;;1.33;1.13;;;;;6.60;95940.00;;;;5053167;28;20658;-59
2023/04/16 04:00:45;;;;;;;1.83;1.73;;;;;6.70;95936.00;;;;5053127;28;20232;-59
2023/04/16 04:03:15;;;;;;;1.70;1.60;;;;;6.70;95940.00;;;;5034930;28;20766;-59
2023/04/16 04:05:43;;;;;;;1.63;1.53;;;;;6.60;95935.00;;;;5053055;28;20206;-59
2023/04/16 04:08:11;;;;;;;1.07;1.07;;;;;6.60;95941.00;;;;5053296;28;20203;-59
2023/04/16 04:10:39;;;;;;;0.70;0.70;;;;;6.60;95935.00;;;;5053250;28;20197;-59
2023/04/16 04:13:08;;;;;;;0.80;0.80;;;;;6.60;95927.00;;;;5034991;28;20223;-59
2023/04/16 04:15:35;;;;;;;0.93;0.93;;;;;6.60;95940.00;;;;5052945;28;20218;-59
2023/04/16 04:18:02;;;;;;;2.83;1.27;;;;;6.60;95949.00;;;;5053155;28;20667;-59
2023/04/16 04:20:30;;;;;;;0.90;0.90;;;;;6.60;95935.00;;;;5052863;28;20201;-59
2023/04/16 04:22:57;;;;;;;1.30;1.20;;;;;6.60;95945.00;;;;5052792;28;20208;-59
2023/04/16 04:25:25;;;;;;;1.23;1.23;;;;;6.60;95944.00;;;;5052846;28;20192;-59
2023/04/16 04:27:52;;;;;;;1.30;1.30;;;;;6.60;95944.00;;;;5052868;28;20282;-59
2023/04/16 04:30:21;;;;;;;1.00;1.00;;;;;6.60;95952.00;;;;5052841;28;20242;-59
2023/04/16 04:32:48;;;;;;;0.90;0.90;;;;;6.60;95944.00;;;;5052937;28;20219;-59
2023/04/16 04:35:16;;;;;;;1.10;1.10;;;;;6.60;95954.00;;;;5055256;28;20199;-59
2023/04/16 04:37:43;;;;;;;0.90;0.90;;;;;6.60;95946.00;;;;5056797;28;20193;-59
2023/04/16 04:40:11;;;;;;;1.73;1.63;;;;;6.60;95947.00;;;;5057028;28;20194;-59
2023/04/16 04:42:39;;;;;;;0.87;0.87;;;;;6.60;95954.00;;;;5056721;28;20210;-59
2023/04/16 04:45:07;;;;;;;0.80;0.80;;;;;6.50;95961.00;;;;5056929;28;20598;-59
2023/04/16 04:47:36;;;;;;;0.80;0.80;;;;;6.50;95971.00;;;;5056648;28;20537;-59
2023/04/16 04:50:04;;;;;;;0.80;0.80;;;;;6.40;95966.00;;;;5056858;28;20211;-59
2023/04/16 04:52:31;;;;;;;1.23;1.17;;;;;6.50;95983.00;;;;5056431;28;20313;-59
2023/04/16 04:54:58;;;;;;;0.80;0.80;;;;;6.50;95964.00;;;;5056545;28;20656;-59
2023/04/16 04:57:26;;;;;;;0.93;0.93;;;;;6.50;95979.00;;;;5056424;28;20196;-59
2023/04/16 04:59:53;;;;;;;1.00;1.00;;;;;6.50;95966.00;;;;5056634;28;20200;-59
2023/04/16 05:02:20;;;;;;;0.90;0.90;;;;;6.50;95981.00;;;;5056297;28;20347;-60
2023/04/16 05:04:49;;;;;;;1.27;1.27;;;;;6.60;95981.00;;;;5056246;28;20713;-61
2023/04/16 05:07:16;;;;;;;1.93;1.67;;;;;6.60;95979.00;;;;5056287;28;20194;-59
2023/04/16 05:09:44;;;;;;;1.53;1.47;;;;;6.50;95997.00;;;;5056482;28;20551;-59
2023/04/16 05:12:11;;;;;;;1.77;1.67;;;;;6.30;95993.00;;;;5056123;28;20578;-59
2023/04/16 05:14:39;;;;;;;2.00;1.90;;;;;6.40;95997.00;;;;5056216;28;20531;-60
2023/04/16 05:17:06;;;;;;;1.97;1.87;;;;;6.40;96002.00;;;;5056850;28;20551;-59
2023/04/16 05:19:34;;;;;;;1.80;1.70;;;;;6.40;96006.00;;;;5056558;28;20204;-59
2023/04/16 05:22:02;;;;;;;2.87;1.17;;;;;6.40;95993.00;;;;5055963;28;20216;-59
2023/04/16 05:24:30;;;;;;;1.20;1.20;;;;;6.50;96016.00;;;;5055932;28;20223;-60
2023/04/16 05:26:57;;;;;;;1.43;1.33;;;;;6.50;96009.00;;;;5055928;28;20190;-60
2023/04/16 05:29:25;;;;;;;2.20;1.90;;;;;6.50;96007.00;;;;5038000;28;20196;-59
2023/04/16 05:31:52;;;;;;;1.60;1.50;;;;;6.50;96015.00;;;;5037933;28;20212;-60
2023/04/16 05:34:20;;;;;;;4.20;2.17;;;;;6.50;96006.00;;;;5055756;28;20192;-59
2023/04/16 05:36:47;;;;;;;2.80;2.57;;;;;6.40;96007.00;;;;5055789;28;20197;-59
2023/04/16 05:39:17;;;;;;;1.50;1.40;;;;;6.40;96014.00;;;;5055663;28;20283;-59
2023/04/16 05:41:44;;;;;;;0.93;0.93;;;;;6.50;96014.00;;;;5055601;28;20575;-59
2023/04/16 05:44:12;;;;;;;1.87;1.77;;;;;6.30;96017.00;;;;5055496;28;20224;-59
2023/04/16 05:46:39;;;;;;;1.83;1.73;;;;;6.30;96010.00;;;;5054915;28;20213;-59
2023/04/16 05:49:07;;;;;;;1.53;1.43;;;;;6.30;96018.00;;;;5056035;28;20673;-59
2023/04/16 05:51:34;;;;;;;1.43;1.33;;;;;6.40;96022.00;;;;5055746;28;20563;-60
2023/04/16 05:54:02;;;;;;;1.67;1.57;;;;;6.40;96025.00;;;;5055825;28;20188;-59
2023/04/16 05:56:30;;;;;;;1.07;1.07;;;;;6.40;96031.00;;;;5055827;28;20195;-59
2023/04/16 05:58:58;;;;;;;1.63;1.53;;;;;6.30;96032.00;;;;5055280;28;20188;-59
2023/04/16 06:01:25;;;;;;;2.03;1.93;;;;;6.30;96033.00;;;;5055727;28;20647;-60
2023/04/16 06:03:53;;;;;;;2.80;2.60;;;;;6.30;96035.00;;;;5090815;22;20239;-60
2023/04/16 06:06:20;;;;;;;2.67;2.47;;;;;6.40;96043.00;;;;5075160;28;20270;-60
2023/04/16 06:08:47;;;;;;;3.23;3.03;;;;;6.30;96029.00;;;;5075898;28;20199;-61
2023/04/16 06:11:15;;;;;;;2.70;2.00;;;;;6.30;96039.00;;;;5075055;28;20210;-59
2023/04/16 06:13:44;;;;;;;2.40;2.20;;;;;6.30;96040.00;;;;5057358;28;20249;-59
2023/04/16 06:16:11;;;;;;;2.73;2.53;;;;;6.40;96039.00;;;;5074922;28;20750;-60
2023/04/16 06:18:39;;;;;;;3.53;2.43;;;;;6.30;96052.00;;;;5057268;28;20253;-60
2023/04/16 06:21:06;;;;;;;2.33;2.13;;;;;6.30;96050.00;;;;5075137;28;20197;-60
2023/04/16 06:23:33;;;;;;;2.13;2.03;;;;;6.30;96045.00;;;;5074954;28;20223;-60
2023/04/16 06:26:01;;;;;;;2.17;1.97;;;;;6.30;96044.00;;;;5074790;28;20659;-61
2023/04/16 06:28:28;;;;;;;1.50;1.40;;;;;6.40;96032.00;;;;5074818;28;20309;-61
2023/04/16 06:30:57;;;;;;;1.97;1.87;;;;;6.30;96051.00;;;;5075328;28;20196;-61
2023/04/16 06:33:24;;;;;;;2.23;2.03;;;;;6.30;96052.00;;;;5074630;28;20694;-60
2023/04/16 06:35:52;;;;;;;1.70;1.60;;;;;6.30;96064.00;;;;5075226;28;20529;-60
2023/04/16 06:38:19;;;;;;;2.07;1.97;;;;;6.30;96054.00;;;;5074548;28;20214;-61
2023/04/16 06:40:48;;;;;;;2.97;2.00;;;;;6.30;96054.00;;;;5074482;28;20188;-61
2023/04/16 06:43:16;;;;;;;3.00;2.70;;;;;6.40;96056.00;;;;5074418;28;20219;-61
2023/04/16 06:45:44;;;;;;;2.37;2.17;;;;;6.40;96051.00;;;;5074604;28;20616;-61
2023/04/16 06:48:12;;;;;;;2.77;2.43;;;;;6.40;96069.00;;;;5074380;28;20200;-61
2023/04/16 06:50:40;;;;;;;2.27;2.07;;;;;6.20;96061.00;;;;5074853;28;20371;-61
2023/04/16 06:53:08;;;;;;;1.90;1.80;;;;;6.30;96059.00;;;;5074385;28;20256;-60
2023/04/16 06:55:38;;;;;;;2.13;2.03;;;;;6.30;96067.00;;;;5074191;28;20193;-61
2023/04/16 06:58:05;;;;;;;3.63;3.33;;;;;6.40;96062.00;;;;5074389;28;20218;-63
2023/04/16 07:00:33;;;;;;;2.43;1.77;;;;;6.40;96065.00;;;;5074667;28;20196;-61
2023/04/16 07:03:02;;;;;;;3.03;2.17;;;;;6.30;96069.00;;;;5073893;28;20226;-61
2023/04/16 07:05:30;;;;;;;2.40;2.27;;;;;6.50;96066.00;;;;5074210;28;20297;-61
2023/04/16 07:07:58;;;;;;;1.90;1.80;;;;;6.40;96072.00;;;;5074012;28;20183;-62
2023/04/16 07:10:26;;;;;;;2.30;2.10;;;;;6.50;96068.00;;;;5074354;28;20187;-60
2023/04/16 07:12:53;;;;;;;4.63;3.13;;;;;6.50;96074.00;;;;5074226;28;20215;-60
2023/04/16 07:15:20;;;;;;;3.77;2.10;;;;;6.50;96070.00;;;;5074293;28;20195;-61
2023/04/16 07:17:48;;;;;;;1.77;1.67;;;;;6.50;96065.00;;;;5073987;28;20668;-61
2023/04/16 07:20:15;;;;;;;3.40;1.97;;;;;6.50;96072.00;;;;5056061;28;20193;-60
2023/04/16 07:22:44;;;;;;;2.37;2.27;;;;;6.50;96080.00;;;;5073589;28;20215;-60
2023/04/16 07:25:11;;;;;;;2.20;2.10;;;;;6.50;96078.00;;;;5074003;28;20222;-60
2023/04/16 07:27:39;;;;;;;4.73;3.40;;;;;6.40;96076.00;;;;5073539;28;20187;-60
2023/04/16 07:30:08;;;;;;;2.10;2.00;;;;;6.50;96068.00;;;;5073901;28;20201;-60
2023/04/16 07:32:35;;;;;;;3.57;2.00;;;;;6.50;96066.00;;;;5073379;28;20191;-60
2023/04/16 07:35:03;;;;;;;2.47;2.23;;;;;6.50;96075.00;;;;5073329;28;20655;-61
2023/04/16 07:37:30;;;;;;;2.50;2.30;;;;;6.40;96087.00;;;;5073354;28;20198;-63
2023/04/16 07:39:59;;;;;;;2.57;2.43;;;;;6.50;96098.00;;;;5073318;28;20214;-61
2023/04/16 07:42:27;;;;;;;3.03;2.70;;;;;6.60;96087.00;;;;5073841;28;20214;-62
2023/04/16 07:44:55;;;;;;;2.33;2.23;;;;;6.80;96090.00;;;;5073307;28;20251;-62
2023/04/16 07:47:25;;;;;;;3.13;2.00;;;;;6.80;96097.00;;;;5073305;28;20201;-63
2023/04/16 07:49:52;;;;;;;3.97;2.67;;;;;6.90;96097.00;;;;5073567;28;20221;-62
2023/04/16 07:52:20;;;;;;;3.47;2.07;;;;;6.70;96094.00;;;;5073870;28;20187;-60
2023/04/16 07:54:47;;;;;;;1.80;1.70;;;;;6.70;96099.00;;;;5073316;28;20202;-61
2023/04/16 07:57:16;;;;;;;1.23;1.23;;;;;6.60;96107.00;;;;5073388;28;20703;-61
2023/04/16 07:59:44;;;;;;;1.40;1.37;;;;;6.60;96097.00;;;;5073127;28;20195;-60
2023/04/16 08:02:14;;;;;;;1.93;1.83;;;;;6.60;96108.00;;;;5073856;28;20198;-61
2023/04/16 08:04:42;;;;;;;2.50;2.30;;;;;6.70;96104.00;;;;5073391;28;20347;-60
2023/04/16 08:07:09;;;;;;;1.53;1.43;;;;;6.70;96115.00;;;;5074198;28;20199;-60
2023/04/16 08:09:46;;;;;;;2.30;2.10;;;;;6.70;96112.00;;;;5073416;28;20272;-61
2023/04/16 08:12:15;;;;;;;2.00;1.90;;;;;6.70;96119.00;;;;5073411;28;20190;-61
2023/04/16 08:14:43;;;;;;;1.23;1.23;;;;;6.70;96122.00;;;;5073002;28;20193;-61
2023/04/16 08:17:11;;;;;;;2.00;1.90;;;;;6.80;96120.00;;;;5072906;28;20237;-61
2023/04/16 08:19:38;;;;;;;3.43;3.13;;;;;6.70;96128.00;;;;5072865;28;20195;-60
2023/04/16 08:22:06;;;;;;;2.47;2.27;;;;;6.80;96120.00;;;;5055796;28;20198;-61
2023/04/16 08:24:33;;;;;;;2.23;2.13;;;;;6.80;96137.00;;;;5072613;28;20288;-60
2023/04/16 08:27:01;;;;;;;1.13;1.13;;;;;6.70;96134.00;;;;5072877;28;20194;-61
2023/04/16 08:29:28;;;;;;;2.70;2.50;;;;;6.70;96141.00;;;;5073479;28;20190;-60
2023/04/16 08:31:57;;;;;;;1.97;1.87;;;;;6.80;96138.00;;;;5072708;28;20202;-61
2023/04/16 08:34:24;;;;;;;2.40;2.20;;;;;6.80;96147.00;;;;5072818;28;20221;-61
2023/04/16 08:36:52;;;;;;;1.00;1.00;;;;;6.80;96153.00;;;;5073287;28;20228;-60
2023/04/16 08:39:19;;;;;;;2.70;2.50;;;;;6.90;96148.00;;;;5073126;28;20195;-62
2023/04/16 08:41:47;;;;;;;2.00;1.90;;;;;6.90;96156.00;;;;5054772;28;20228;-60
2023/04/16 08:44:23;;;;;;;2.97;2.77;;;;;7.00;96146.00;;;;5072576;28;20218;-62
2023/04/16 08:46:53;;;;;;;1.30;1.30;;;;;6.90;96151.00;;;;5073166;28;20182;-61
2023/04/16 08:49:23;;;;;;;3.07;1.93;;;;;7.00;96160.00;;;;5072602;28;20275;-61
2023/04/16 08:51:51;;;;;;;2.00;1.90;;;;;7.10;96159.00;;;;5072585;28;20196;-60
2023/04/16 08:54:32;;;;;;;2.33;2.13;;;;;7.00;96151.00;;;;5072539;28;20222;-62
2023/04/16 08:57:00;;;;;;;1.70;1.60;;;;;7.00;96158.00;;;;5072782;28;20190;-61
2023/04/16 08:59:28;;;;;;;1.80;1.70;;;;;7.10;96163.00;;;;5073142;28;20192;-60
2023/04/16 09:01:59;;;;;;;2.80;2.60;;;;;7.10;96150.00;;;;5072659;28;20191;-60
2023/04/16 09:04:28;;;;;;;1.77;1.67;;;;;7.10;96148.00;;;;5054282;28;20231;-61
2023/04/16 09:06:57;;;;;;;1.43;1.33;;;;;7.10;96150.00;;;;5072415;28;20242;-60
2023/04/16 09:09:25;;;;;;;3.23;2.43;;;;;7.20;96151.00;;;;5072648;28;20252;-60
2023/04/16 09:11:53;;;;;;;1.97;1.87;;;;;7.10;96153.00;;;;5072314;28;20637;-59
2023/04/16 09:14:21;;;;;;;2.40;2.30;;;;;7.20;96166.00;;;;5072731;28;20214;-60
2023/04/16 09:16:52;;;;;;;1.90;1.80;;;;;7.10;96175.00;;;;5072282;28;20198;-60
2023/04/16 09:19:20;;;;;;;3.03;2.83;;;;;7.10;96170.00;;;;5072494;28;20537;-60
2023/04/16 09:21:49;;;;;;;1.83;1.73;;;;;7.10;96158.00;;;;5073806;28;20651;-61
2023/04/16 09:24:17;;;;;;;1.80;1.70;;;;;7.20;96168.00;;;;5075692;28;20219;-60
2023/04/16 09:26:45;;;;;;;5.43;2.47;;;;;7.20;96170.00;;;;5075755;28;20273;-60
2023/04/16 09:29:32;;;;;;;1.60;1.50;;;;;7.20;96168.00;;;;5076336;28;20187;-60
2023/04/16 09:32:03;;;;;;;2.77;2.57;;;;;7.20;96163.00;;;;5075627;28;20691;-60
2023/04/16 09:34:31;;;;;;;2.10;1.93;;;;;7.20;96171.00;;;;5075494;28;20211;-61
2023/04/16 09:37:15;;;;;;;2.80;2.43;;;;;7.40;96173.00;;;;5076147;28;20269;-60
2023/04/16 09:39:43;;;;;;;2.13;2.03;;;;;7.30;96175.00;;;;5075759;28;20602;-61
2023/04/16 09:42:10;;;;;;;3.27;2.97;;;;;7.20;96178.00;;;;5075634;28;20213;-61
2023/04/16 09:44:38;;;;;;;2.93;2.73;;;;;6.90;96183.00;;;;5075310;28;20237;-60
2023/04/16 09:47:07;;;;;;;1.97;1.87;;;;;7.00;96180.00;;;;5075663;28;20603;-60
2023/04/16 09:49:35;;;;;;;3.40;2.47;;;;;7.10;96178.00;;;;5075754;28;20677;-60
2023/04/16 09:52:13;;;;;;;2.07;1.97;;;;;7.20;96189.00;;;;5075326;28;20316;-60
2023/04/16 09:54:49;;;;;;;4.43;2.50;;;;;7.10;96186.00;;;;5075197;28;20715;-60
2023/04/16 09:57:20;;;;;;;12.93;2.27;;;;;7.00;96190.00;;;;5075601;28;20183;-60
2023/04/16 09:59:48;;;;;;;3.30;2.60;;;;;7.30;96187.00;;;;5075647;28;20183;-60
2023/04/16 10:02:17;;;;;;;3.30;2.10;;;;;7.30;96187.00;;;;5075175;28;20201;-60
2023/04/16 10:04:48;;;;;;;3.17;2.97;;;;;7.10;96194.00;;;;5076210;28;20198;-60
2023/04/16 10:07:18;;;;;;;1.77;1.43;;;;;7.10;96199.00;;;;5075071;28;20225;-61
2023/04/16 10:09:47;;;;;;;2.77;2.50;;;;;7.30;96202.00;;;;5075174;28;20259;-60
2023/04/16 10:12:15;;;;;;;2.00;1.80;;;;;7.40;96156.00;;;;5057024;28;20229;-60
2023/04/16 10:14:43;;;;;;;2.83;2.17;;;;;7.40;96192.00;;;;5075226;28;20201;-60
2023/04/16 10:17:10;;;;;;;2.57;2.43;;;;;7.50;96195.00;;;;5074839;28;20253;-62
2023/04/16 10:19:38;;;;;;;3.60;2.27;;;;;7.40;96204.00;;;;5075069;28;20198;-61
2023/04/16 10:22:06;;;;;;;1.90;1.80;;;;;7.50;96208.00;;;;5074883;28;20191;-61
2023/04/16 10:24:35;;;;;;;3.77;1.80;;;;;7.50;96214.00;;;;5074615;28;20707;-61
2023/04/16 10:27:02;;;;;;;1.87;1.77;;;;;7.50;96220.00;;;;5075038;28;20226;-61
2023/04/16 10:29:31;;;;;;;8.93;3.67;;;;;7.40;96219.00;;;;5074829;28;20262;-61
2023/04/16 10:32:00;;;;;;;2.97;2.77;;;;;7.40;96216.00;;;;5074595;28;20278;-61
2023/04/16 10:34:28;;;;;;;1.80;1.70;;;;;7.30;96219.00;;;;5074471;28;20206;-60
2023/04/16 10:36:56;;;;;;;2.53;2.03;;;;;7.20;96206.00;;;;5074622;28;20249;-60
2023/04/16 10:39:25;;;;;;;2.50;2.30;;;;;7.20;96212.00;;;;5074360;28;20194;-60
2023/04/16 10:42:08;;;;;;;1.40;1.40;;;;;7.20;96216.00;;;;5074542;28;20248;-59
2023/04/16 10:44:38;;;;;;;1.93;1.83;;;;;7.30;96212.00;;;;5074687;28;20301;-60
2023/04/16 10:47:11;;;;;;;2.57;2.37;;;;;7.30;96207.00;;;;5074171;28;20712;-59
2023/04/16 10:49:39;;;;;;;4.47;3.20;;;;;7.20;96213.00;;;;5074257;28;20212;-60
2023/04/16 10:52:11;;;;;;;2.47;2.27;;;;;7.40;96207.00;;;;5075217;28;20216;-59
2023/04/16 10:54:39;;;;;;;1.80;1.70;;;;;7.40;96212.00;;;;5074637;28;20216;-59
2023/04/16 10:57:11;;;;;;;1.23;1.23;;;;;7.30;96212.00;;;;5056147;28;20208;-61
2023/04/16 10:59:42;;;;;;;2.07;1.93;;;;;7.20;96218.00;;;;5074416;28;20574;-61
2023/04/16 11:02:15;;;;;;;2.43;2.23;;;;;7.10;96213.00;;;;5075118;28;20229;-60
2023/04/16 11:04:44;;;;;;;1.77;1.67;;;;;7.20;96216.00;;;;5073950;28;20297;-59
2023/04/16 11:07:20;;;;;;;1.97;1.87;;;;;7.30;96209.00;;;;5073919;28;20249;-61
2023/04/16 11:09:55;;;;;;;1.50;1.40;;;;;7.20;96213.00;;;;5055739;28;20210;-60
2023/04/16 11:12:26;;;;;;;1.93;1.83;;;;;7.10;96216.00;;;;5074283;28;20695;-60
2023/04/16 11:14:54;;;;;;;2.07;1.93;;;;;7.20;96209.00;;;;5074340;28;20253;-61
2023/04/16 11:17:22;;;;;;;2.67;2.50;;;;;7.30;96217.00;;;;5073504;28;20202;-61
2023/04/16 11:19:50;;;;;;;1.10;1.10;;;;;7.20;96214.00;;;;5073514;28;20202;-60
2023/04/16 11:22:18;;;;;;;1.17;1.17;;;;;7.20;96207.00;;;;5056269;28;20204;-60
2023/04/16 11:24:46;;;;;;;1.73;1.63;;;;;7.30;96211.00;;;;5074012;28;20555;-60
2023/04/16 11:27:14;;;;;;;1.30;1.30;;;;;7.40;96211.00;;;;5073904;28;20223;-61
2023/04/16 11:29:43;;;;;;;1.63;1.53;;;;;7.40;96216.00;;;;5073656;28;20237;-61
2023/04/16 11:32:20;;;;;;;2.27;2.17;;;;;7.50;96217.00;;;;5073519;28;20218;-60
2023/04/16 11:34:47;;;;;;;2.10;2.00;;;;;7.30;96209.00;;;;5055716;28;20269;-60
2023/04/16 11:37:15;;;;;;;1.93;1.83;;;;;7.40;96214.00;;;;5073808;28;20197;-61
2023/04/16 11:39:49;;;;;;;2.00;1.80;;;;;7.50;96216.00;;;;5073403;28;20268;-60
2023/04/16 11:42:21;;;;;;;2.00;1.90;;;;;7.50;96220.00;;;;5073608;28;20224;-61
2023/04/16 11:44:54;;;;;;;2.03;1.93;;;;;7.40;96221.00;;;;5073061;28;20277;-61
2023/04/16 11:47:22;;;;;;;1.40;1.30;;;;;7.50;96223.00;;;;5073793;28;20325;-60
2023/04/16 11:49:49;;;;;;;1.83;1.73;;;;;7.50;96212.00;;;;5073257;28;20191;-61
2023/04/16 11:52:27;;;;;;;5.23;3.03;;;;;7.70;96218.00;;;;5073873;28;20281;-60
2023/04/16 11:54:54;;;;;;;1.70;1.60;;;;;7.90;96214.00;;;;5073509;28;20657;-60
2023/04/16 11:57:26;;;;;;;1.73;1.53;;;;;7.90;96230.00;;;;5074303;28;20193;-62
2023/04/16 11:59:56;;;;;;;2.33;2.13;;;;;7.80;96230.00;;;;5073513;28;20557;-60
2023/04/16 12:02:36;;;;;;;1.83;1.77;;;;;7.90;96219.00;;;;5073180;28;20190;-61
2023/04/16 12:05:07;;;;;;;1.53;1.53;;;;;7.90;96229.00;;;;5083252;22;20330;-59
2023/04/16 12:07:45;;;;;;;2.87;1.50;;;;;8.20;96219.00;;;;5052854;28;20211;-60
2023/04/16 12:10:13;;;;;;;1.93;1.83;;;;;8.30;96216.00;;;;5053192;28;20180;-59
2023/04/16 12:12:40;;;;;;;2.13;2.03;;;;;8.20;96219.00;;;;5053098;28;20245;-60
2023/04/16 12:15:09;;;;;;;1.00;1.00;;;;;8.00;96214.00;;;;5052641;28;20220;-60
2023/04/16 12:17:38;;;;;;;2.10;1.90;;;;;7.90;96219.00;;;;5052725;28;20184;-59
2023/04/16 12:20:09;;;;;;;1.13;1.13;;;;;7.90;96234.00;;;;5052799;28;20206;-59
2023/04/16 12:22:38;;;;;;;1.27;1.27;;;;;7.90;96232.00;;;;5053059;28;20281;-60
2023/04/16 12:25:07;;;;;;;1.00;1.00;;;;;7.90;96222.00;;;;5052867;28;20219;-60
2023/04/16 12:27:46;;;;;;;1.17;1.17;;;;;7.90;96230.00;;;;5053465;28;20229;-60
2023/04/16 12:30:16;;;;;;;3.70;1.80;;;;;8.10;96235.00;;;;5052787;28;20274;-60
2023/04/16 12:32:45;;;;;;;0.90;0.90;;;;;8.10;96229.00;;;;5053515;28;20207;-60